Time;durP1;ratioP1;P1;durP2;ratioP2;P2;SDS_P1;SDS_P2;PMS_P1;PMS_P2;Temp;Humidity;BMP_temperature;BMP_pressure;BME280_temperature;BME280_humidity;BME280_pressure;Samples;Min_cycle;Max_cycle;Signal;HPM_P1;HPM_P2
2022/07/29 00:01:16;;;;;;;;;;;;;;;20.19;100.00;99337.63;4970678;28;19926;-82
2022/07/29 00:03:43;;;;;;;;;;;;;;;20.22;100.00;99325.31;4971922;28;19933;-82
2022/07/29 00:06:10;;;;;;;;;;;;;;;20.22;100.00;99331.75;4971457;28;19976;-82
2022/07/29 00:08:37;;;;;;;;;;;;;;;19.98;100.00;99338.66;4971688;28;20021;-82
2022/07/29 00:11:04;;;;;;;;;;;;;;;20.01;100.00;99332.78;4971718;28;20423;-82
2022/07/29 00:13:31;;;;;;;;;;;;;;;20.20;100.00;99325.00;4938606;28;19927;-82
2022/07/29 00:15:59;;;;;;;;;;;;;;;20.44;100.00;99325.78;4954373;28;19926;-82
2022/07/29 00:18:26;;;;;;;;;;;;;;;20.40;100.00;99323.13;4972669;28;19926;-82
2022/07/29 00:20:53;;;;;;;;;;;;;;;20.07;100.00;99324.44;4973621;28;19976;-82
2022/07/29 00:23:20;;;;;;;;;;;;;;;20.26;100.00;99320.22;4974741;28;20004;-82
2022/07/29 00:25:47;;;;;;;;;;;;;;;19.77;100.00;99319.84;4989567;28;20024;-82
2022/07/29 00:28:14;;;;;;;;;;;;;;;20.39;100.00;99317.94;4973592;28;19933;-82
2022/07/29 00:30:42;;;;;;;;;;;;;;;20.49;100.00;99316.59;4974624;28;20076;-82
2022/07/29 00:33:09;;;;;;;;;;;;;;;20.83;100.00;99307.47;4974778;28;19926;-82
2022/07/29 00:35:46;;;;;;;;;;;;;;;20.30;100.00;99315.16;4973273;28;20434;-82
2022/07/29 00:38:14;;;;;;;;;;;;;;;19.85;100.00;99310.53;4974539;28;19961;-82
2022/07/29 00:40:41;;;;;;;;;;;;;;;20.53;100.00;99305.84;4973430;28;19926;-82
2022/07/29 00:43:09;;;;;;;;;;;;;;;20.62;100.00;99308.59;4974453;28;19933;-82
2022/07/29 00:45:36;;;;;;;;;;;;;;;20.78;100.00;99299.66;4973293;28;19926;-82
2022/07/29 00:48:04;;;;;;;;;;;;;;;20.73;100.00;99300.31;4957314;28;19987;-82
2022/07/29 00:50:32;;;;;;;;;;;;;;;20.78;100.00;99300.41;4974376;28;19926;-82
2022/07/29 00:52:59;;;;;;;;;;;;;;;20.63;100.00;99299.59;4974390;28;19952;-82
2022/07/29 00:55:28;;;;;;;;;;;;;;;20.90;100.00;99307.09;4957288;28;19944;-82
2022/07/29 00:57:56;;;;;;;;;;;;;;;20.32;100.00;99307.75;4973224;28;19930;-82
2022/07/29 01:00:24;;;;;;;;;;;;;;;20.87;100.00;99302.41;4974398;28;20277;-82
2022/07/29 01:02:51;;;;;;;;;;;;;;;20.77;100.00;99298.06;4974160;28;19976;-82
2022/07/29 01:05:20;;;;;;;;;;;;;;;20.64;100.00;99306.06;4972698;28;20373;-82
2022/07/29 01:07:49;;;;;;;;;;;;;;;20.32;100.00;99306.94;4973049;28;19965;-82
2022/07/29 01:10:18;;;;;;;;;;;;;;;20.42;100.00;99311.28;4972866;28;19926;-82
2022/07/29 01:12:47;;;;;;;;;;;;;;;20.73;100.00;99314.50;4957153;28;19930;-82
2022/07/29 01:15:14;;;;;;;;;;;;;;;20.77;100.00;99303.75;4974084;28;19930;-82
2022/07/29 01:17:48;;;;;;;;;;;;;;;20.49;100.00;99310.94;4973172;28;19934;-82
2022/07/29 01:20:18;;;;;;;;;;;;;;;20.75;100.00;99303.47;4973946;28;20015;-82
2022/07/29 01:23:04;;;;;;;;;;;;;;;20.84;100.00;99301.31;4973830;28;20020;-82
2022/07/29 01:25:50;;;;;;;;;;;;;;;20.07;100.00;99308.19;4972969;28;19933;-82
2022/07/29 01:28:23;;;;;;;;;;;;;;;20.45;100.00;99304.63;4974126;28;19926;-82
2022/07/29 01:30:51;;;;;;;;;;;;;;;20.28;100.00;99312.78;4972584;28;19930;-82
2022/07/29 01:36:11;;;;;;;;;;;;;;;20.29;100.00;99305.09;4973715;28;20013;-82
2022/07/29 01:38:41;;;;;;;;;;;;;;;20.63;100.00;99310.19;4972653;28;19933;-82
2022/07/29 01:41:08;;;;;;;;;;;;;;;20.70;100.00;99304.13;4973721;28;19926;-82
2022/07/29 01:43:40;;;;;;;;;;;;;;;20.64;100.00;99300.41;4970913;28;19930;-82
2022/07/29 01:46:11;;;;;;;;;;;;;;;20.22;100.00;99308.28;4973624;28;19926;-81
2022/07/29 01:48:41;;;;;;;;;;;;;;;20.62;100.00;99306.56;4972625;28;20289;-82
2022/07/29 01:51:18;;;;;;;;;;;;;;;20.37;100.00;99301.38;4973796;28;19926;-82
2022/07/29 01:53:45;;;;;;;;;;;;;;;20.56;100.00;99300.00;4972496;28;20033;-83
2022/07/29 01:56:13;;;;;;;;;;;;;;;20.75;100.00;99301.38;4973490;28;19932;-83
2022/07/29 01:58:43;;;;;;;;;;;;;;;20.80;100.00;99302.78;4972228;28;20021;-83
2022/07/29 02:01:10;;;;;;;;;;;;;;;20.76;100.00;99302.97;4973098;28;19926;-83
2022/07/29 02:03:38;;;;;;;;;;;;;;;19.71;100.00;99311.22;4973338;28;19926;-83
2022/07/29 02:06:07;;;;;;;;;;;;;;;19.91;100.00;99293.63;4972096;28;19926;-83
2022/07/29 02:08:35;;;;;;;;;;;;;;;20.27;100.00;99304.78;4972165;28;19930;-83
2022/07/29 02:11:04;;;;;;;;;;;;;;;20.41;100.00;99298.38;4956271;28;20416;-83
2022/07/29 02:13:32;;;;;;;;;;;;;;;20.51;100.00;99302.69;4973294;28;19930;-83
2022/07/29 02:16:00;;;;;;;;;;;;;;;20.53;100.00;99305.84;4972950;28;19926;-83
2022/07/29 02:18:27;;;;;;;;;;;;;;;20.66;100.00;99304.31;4973188;28;19976;-83
2022/07/29 02:20:55;;;;;;;;;;;;;;;20.43;100.00;99302.28;4973398;28;19926;-83
2022/07/29 02:23:23;;;;;;;;;;;;;;;20.46;100.00;99300.53;4973173;28;19926;-83
2022/07/29 02:25:54;;;;;;;;;;;;;;;20.47;100.00;99297.22;4956041;28;20025;-83
2022/07/29 02:28:24;;;;;;;;;;;;;;;20.63;100.00;99298.84;4971961;28;19952;-83
2022/07/29 02:30:52;;;;;;;;;;;;;;;20.43;100.00;99301.53;4972839;28;19933;-83
2022/07/29 02:33:20;;;;;;;;;;;;;;;20.32;100.00;99298.44;4973189;28;19933;-83
2022/07/29 02:35:47;;;;;;;;;;;;;;;19.98;100.00;99296.13;4955800;28;19927;-83
2022/07/29 02:41:04;;;;;;;;;;;;;;;20.33;100.00;99302.84;4972357;28;20021;-83
2022/07/29 02:43:32;;;;;;;;;;;;;;;20.03;100.00;99309.63;4955747;28;19933;-83
2022/07/29 02:46:00;;;;;;;;;;;;;;;19.63;100.00;99310.78;4971360;28;19926;-83
2022/07/29 02:48:38;;;;;;;;;;;;;;;20.22;100.00;99308.28;4971513;28;19926;-83
2022/07/29 02:51:13;;;;;;;;;;;;;;;20.27;100.00;99304.78;4972644;28;20309;-82
2022/07/29 02:53:41;;;;;;;;;;;;;;;20.21;100.00;99307.50;4971321;28;19980;-81
2022/07/29 02:56:11;;;;;;;;;;;;;;;19.81;100.00;99320.47;4972662;28;20379;-82
2022/07/29 02:58:40;;;;;;;;;;;;;;;20.04;100.00;99308.38;4971499;28;19975;-82
2022/07/29 03:01:15;;;;;;;;;;;;;;;20.19;100.00;99315.69;4955294;28;20021;-82
2022/07/29 03:03:46;;;;;;;;;;;;;;;20.31;100.00;99317.50;4972165;28;20360;-82
2022/07/29 03:06:15;;;;;;;;;;;;;;;20.30;100.00;99315.94;4972611;28;19941;-82
2022/07/29 03:08:42;;;;;;;;;;;;;;;20.31;100.00;99313.91;4971617;28;19949;-83
2022/07/29 03:11:11;;;;;;;;;;;;;;;20.47;100.00;99302.91;4972633;28;19933;-83
2022/07/29 03:13:39;;;;;;;;;;;;;;;20.26;100.00;99311.72;4971246;28;19929;-82
2022/07/29 03:16:07;;;;;;;;;;;;;;;20.35;100.00;99305.97;4971048;28;19934;-83
2022/07/29 03:18:35;;;;;;;;;;;;;;;20.39;100.00;99306.56;4971417;28;19972;-83
2022/07/29 03:21:03;;;;;;;;;;;;;;;20.17;100.00;99306.09;4972328;28;20076;-83
2022/07/29 03:23:30;;;;;;;;;;;;;;;19.86;100.00;99312.09;4972662;28;19932;-83
2022/07/29 03:25:57;;;;;;;;;;;;;;;20.13;100.00;99314.03;4971200;28;19935;-83
2022/07/29 03:28:24;;;;;;;;;;;;;;;20.18;100.00;99313.34;4971118;28;19927;-83
2022/07/29 03:30:51;;;;;;;;;;;;;;;20.00;100.00;99310.59;4939068;28;19979;-82
2022/07/29 03:33:19;;;;;;;;;;;;;;;20.18;100.00;99305.63;4955344;28;20440;-82
2022/07/29 03:35:46;;;;;;;;;;;;;;;20.33;100.00;99309.31;4971058;28;20472;-82
2022/07/29 03:38:13;;;;;;;;;;;;;;;20.22;100.00;99308.28;4972226;28;20376;-82
2022/07/29 03:40:44;;;;;;;;;;;;;;;20.31;100.00;99313.91;4972258;28;19926;-83
2022/07/29 03:43:13;;;;;;;;;;;;;;;20.31;100.00;99322.41;4970523;28;20397;-82
2022/07/29 03:45:42;;;;;;;;;;;;;;;19.49;100.00;99319.94;4970803;28;19933;-82
2022/07/29 03:48:12;;;;;;;;;;;;;;;19.93;100.00;99314.59;4955055;28;20018;-82
2022/07/29 03:50:39;;;;;;;;;;;;;;;19.64;100.00;99323.66;4971177;28;20029;-82
2022/07/29 03:53:07;;;;;;;;;;;;;;;19.24;100.00;99323.16;4972433;28;19937;-82
2022/07/29 03:55:41;;;;;;;;;;;;;;;19.64;100.00;99326.50;4975361;28;19970;-82
2022/07/29 03:58:08;;;;;;;;;;;;;;;19.95;100.00;99323.38;4974160;28;19969;-82
2022/07/29 04:00:36;;;;;;;;;;;;;;;19.80;100.00;99324.56;4973979;28;20538;-82
2022/07/29 04:03:04;;;;;;;;;;;;;;;19.81;100.00;99321.25;4973891;28;20007;-83
2022/07/29 04:05:31;;;;;;;;;;;;;;;19.87;100.00;99329.88;4973892;28;19935;-82
2022/07/29 04:07:58;;;;;;;;;;;;;;;19.98;100.00;99327.31;4974000;28;20028;-82
2022/07/29 04:10:25;;;;;;;;;;;;;;;20.11;100.00;99322.19;4975277;28;20270;-83
2022/07/29 04:12:57;;;;;;;;;;;;;;;20.10;100.00;99323.47;4973805;28;20389;-83
2022/07/29 04:15:24;;;;;;;;;;;;;;;20.08;100.00;99331.66;4974945;28;19930;-83
2022/07/29 04:17:52;;;;;;;;;;;;;;;20.27;100.00;99333.13;4958136;28;20278;-83
2022/07/29 04:20:19;;;;;;;;;;;;;;;20.16;100.00;99332.91;4973953;28;19999;-83
2022/07/29 04:22:46;;;;;;;;;;;;;;;20.18;100.00;99336.84;4973770;28;19930;-83
2022/07/29 04:25:13;;;;;;;;;;;;;;;20.06;100.00;99352.00;4974146;28;20020;-83
2022/07/29 04:27:59;;;;;;;;;;;;;;;20.11;100.00;99342.03;4957930;28;20063;-83
2022/07/29 04:30:27;;;;;;;;;;;;;;;20.12;100.00;99344.41;4973876;28;20289;-83
2022/07/29 04:32:55;;;;;;;;;;;;;;;19.64;100.00;99354.84;4973890;28;19926;-83
2022/07/29 04:35:23;;;;;;;;;;;;;;;19.94;100.00;99349.38;4973937;28;20350;-83
2022/07/29 04:37:50;;;;;;;;;;;;;;;20.02;100.00;99350.59;4974822;28;19933;-83
2022/07/29 04:40:17;;;;;;;;;;;;;;;19.81;100.00;99360.16;4973792;28;20554;-83
2022/07/29 04:42:44;;;;;;;;;;;;;;;19.30;100.00;99358.13;4973397;28;19934;-83
2022/07/29 04:45:11;;;;;;;;;;;;;;;19.14;100.00;99366.16;4957495;28;19992;-83
2022/07/29 04:47:39;;;;;;;;;;;;;;;18.65;100.00;99368.34;4973761;28;19932;-83
2022/07/29 04:50:07;;;;;;;;;;;;;;;18.68;100.00;99368.19;4973445;28;19930;-83
2022/07/29 04:52:35;;;;;;;;;;;;;;;18.65;100.00;99360.66;4973298;28;19926;-82
2022/07/29 04:55:03;;;;;;;;;;;;;;;18.77;100.00;99364.56;4974555;28;19934;-83
2022/07/29 04:57:30;;;;;;;;;;;;;;;18.98;100.00;99353.09;4974389;28;19949;-83
2022/07/29 04:59:57;;;;;;;;;;;;;;;19.17;100.00;99360.31;4973171;28;19934;-83
2022/07/29 05:02:24;;;;;;;;;;;;;;;19.46;100.00;99360.56;4973224;28;19934;-82
2022/07/29 05:04:51;;;;;;;;;;;;;;;19.34;100.00;99358.72;4940327;28;20413;-83
2022/07/29 05:07:19;;;;;;;;;;;;;;;18.46;100.00;99367.56;4957281;28;19934;-83
2022/07/29 05:09:47;;;;;;;;;;;;;;;18.20;100.00;99360.56;4957416;28;20354;-83
2022/07/29 05:12:14;;;;;;;;;;;;;;;18.49;100.00;99374.31;4972647;28;19927;-83
2022/07/29 05:14:41;;;;;;;;;;;;;;;19.05;100.00;99366.16;4972961;28;19976;-83
2022/07/29 05:17:09;;;;;;;;;;;;;;;18.84;100.00;99365.06;4973101;28;19927;-83
2022/07/29 05:19:36;;;;;;;;;;;;;;;18.92;100.00;99368.34;4972946;28;19930;-83
2022/07/29 05:22:03;;;;;;;;;;;;;;;19.08;100.00;99374.50;4973188;28;19933;-83
2022/07/29 05:24:30;;;;;;;;;;;;;;;18.87;100.00;99372.59;4972677;28;19926;-83
2022/07/29 05:26:57;;;;;;;;;;;;;;;19.27;100.00;99373.22;4972629;28;19941;-83
2022/07/29 05:29:24;;;;;;;;;;;;;;;19.12;100.00;99369.44;4973725;28;20389;-83
2022/07/29 05:31:52;;;;;;;;;;;;;;;18.71;100.00;99378.59;4972608;28;19926;-82
2022/07/29 05:34:19;;;;;;;;;;;;;;;18.90;100.00;99374.47;4972802;28;19932;-83
2022/07/29 05:36:46;;;;;;;;;;;;;;;19.26;100.00;99373.66;4972187;28;20274;-83
2022/07/29 05:39:13;;;;;;;;;;;;;;;18.97;100.00;99377.00;4973899;28;19926;-83
2022/07/29 05:41:41;;;;;;;;;;;;;;;19.33;100.00;99379.81;4956885;28;19999;-83
2022/07/29 05:44:08;;;;;;;;;;;;;;;19.34;100.00;99370.06;4973462;28;19926;-83
2022/07/29 05:46:35;;;;;;;;;;;;;;;19.57;100.00;99371.41;4956854;28;20362;-83
2022/07/29 05:49:02;;;;;;;;;;;;;;;19.47;100.00;99379.19;4956700;28;20016;-82
2022/07/29 05:51:30;;;;;;;;;;;;;;;19.32;100.00;99383.94;4972344;28;19926;-84
2022/07/29 05:53:57;;;;;;;;;;;;;;;19.43;100.00;99378.53;4956205;28;20297;-82
2022/07/29 05:56:24;;;;;;;;;;;;;;;19.30;100.00;99383.59;4972766;28;19933;-85
2022/07/29 05:58:51;;;;;;;;;;;;;;;19.47;100.00;99384.84;4956217;28;20034;-85
2022/07/29 06:01:19;;;;;;;;;;;;;;;19.37;100.00;99383.28;4972356;28;20223;-81
2022/07/29 06:03:46;;;;;;;;;;;;;;;19.43;100.00;99384.19;4972067;28;19927;-80
2022/07/29 06:06:13;;;;;;;;;;;;;;;19.41;100.00;99386.75;4973270;28;20404;-80
2022/07/29 06:08:40;;;;;;;;;;;;;;;19.13;100.00;99390.84;4971803;28;19926;-81
2022/07/29 06:11:08;;;;;;;;;;;;;;;18.59;100.00;99393.66;4956017;28;19933;-80
2022/07/29 06:13:35;;;;;;;;;;;;;;;18.64;100.00;99395.88;4972995;28;19933;-81
2022/07/29 06:16:02;;;;;;;;;;;;;;;18.87;100.00;99397.31;4972102;28;19926;-81
2022/07/29 06:18:29;;;;;;;;;;;;;;;19.29;100.00;99395.41;4971871;28;19926;-81
2022/07/29 06:20:56;;;;;;;;;;;;;;;19.37;100.00;99397.44;4971984;28;19934;-81
2022/07/29 06:23:23;;;;;;;;;;;;;;;19.37;100.00;99397.44;4971696;28;19977;-81
2022/07/29 06:25:50;;;;;;;;;;;;;;;18.85;100.00;99402.66;4973050;28;19927;-83
2022/07/29 06:28:17;;;;;;;;;;;;;;;19.23;100.00;99395.25;4972261;28;19926;-84
2022/07/29 06:30:45;;;;;;;;;;;;;;;19.41;100.00;99403.75;4973521;28;19926;-84
2022/07/29 06:33:16;;;;;;;;;;;;;;;19.53;100.00;99397.09;4973337;28;20064;-84
2022/07/29 06:35:43;;;;;;;;;;;;;;;19.58;100.00;99401.34;4971990;28;19933;-84
2022/07/29 06:38:11;;;;;;;;;;;;;;;19.79;100.00;99394.66;4971532;28;19934;-84
2022/07/29 06:41:15;;;;;;;;;;;;;;;19.94;100.00;99401.22;4955711;28;20059;-82
2022/07/29 06:43:40;;;;;;;;;;;;;;;20.02;100.00;99401.66;4969451;28;19926;-84
2022/07/29 06:46:10;;;;;;;;;;;;;;;20.10;100.00;99402.91;4956070;28;19952;-82
2022/07/29 06:48:37;;;;;;;;;;;;;;;19.93;100.00;99404.53;4971827;28;19936;-81
2022/07/29 06:51:05;;;;;;;;;;;;;;;20.16;100.00;99412.34;4973066;28;19926;-82
2022/07/29 06:53:32;;;;;;;;;;;;;;;20.24;100.00;99403.00;4971547;28;19926;-82
2022/07/29 06:56:00;;;;;;;;;;;;;;;20.22;100.00;99404.75;4955575;28;19933;-82
2022/07/29 06:58:27;;;;;;;;;;;;;;;19.92;100.00;99406.56;4939544;28;19983;-81
2022/07/29 07:00:55;;;;;;;;;;;;;;;20.17;100.00;99408.25;4972510;28;20265;-81
2022/07/29 07:03:23;;;;;;;;;;;;;;;20.04;100.00;99404.81;4972541;28;19980;-81
2022/07/29 07:05:50;;;;;;;;;;;;;;;19.93;100.00;99404.53;4971148;28;19957;-80
2022/07/29 07:08:17;;;;;;;;;;;;;;;20.01;100.00;99411.44;4955178;28;19926;-80
2022/07/29 07:10:44;;;;;;;;;;;;;;;20.18;100.00;99410.59;4972293;28;19926;-82
2022/07/29 07:13:11;;;;;;;;;;;;;;;20.13;100.00;99407.63;4955119;28;20354;-81
2022/07/29 07:15:38;;;;;;;;;;;;;;;20.25;100.00;99404.56;4970459;28;20433;-80
2022/07/29 07:18:06;;;;;;;;;;;;;;;20.17;100.00;99414.72;4971046;28;19930;-80
2022/07/29 07:20:33;;;;;;;;;;;;;;;20.15;100.00;99417.22;4954768;28;19927;-81
2022/07/29 07:23:00;;;;;;;;;;;;;;;20.31;100.00;99410.38;4970698;28;19934;-81
2022/07/29 07:25:28;;;;;;;;;;;;;;;20.17;100.00;99425.25;4972428;28;20330;-81
2022/07/29 07:27:55;;;;;;;;;;;;;;;20.20;100.00;99421.47;4973775;28;19933;-81
2022/07/29 07:30:22;;;;;;;;;;;;;;;20.40;100.00;99418.84;4975660;28;19926;-80
2022/07/29 07:32:49;;;;;;;;;;;;;;;20.17;100.00;99419.59;4974542;28;19934;-81
2022/07/29 07:35:16;;;;;;;;;;;;;;;20.34;100.00;99412.25;4975113;28;20297;-82
2022/07/29 07:37:43;;;;;;;;;;;;;;;20.10;100.00;99419.91;4958151;28;19937;-81
2022/07/29 07:40:13;;;;;;;;;;;;;;;19.98;100.00;99429.41;4975427;28;19949;-82
2022/07/29 07:42:41;;;;;;;;;;;;;;;20.31;100.00;99435.91;4974448;28;19953;-81
2022/07/29 07:45:11;;;;;;;;;;;;;;;20.46;100.00;99425.44;4975533;28;20290;-81
2022/07/29 07:47:39;;;;;;;;;;;;;;;20.56;100.00;99435.44;4974287;28;19949;-81
2022/07/29 07:50:08;;;;;;;;;;;;;;;20.61;100.00;99426.28;4975120;28;19927;-81
2022/07/29 07:52:45;;;;;;;;;;;;;;;20.56;100.00;99413.53;4958511;28;19926;-82
2022/07/29 07:55:12;;;;;;;;;;;;;;;20.38;100.00;99424.19;4973307;28;19985;-81
2022/07/29 07:57:39;;;;;;;;;;;;;;;20.41;100.00;99428.91;4974918;28;19926;-83
2022/07/29 08:00:07;;;;;;;;;;;;;;;20.63;100.00;99435.09;4974055;28;19933;-82
2022/07/29 08:02:39;;;;;;;;;;;;;;;20.67;100.00;99427.19;4958448;28;19926;-81
2022/07/29 08:05:07;;;;;;;;;;;;;;;20.40;100.00;99427.34;4957633;28;20411;-79
2022/07/29 08:07:34;;;;;;;;;;;;;;;20.56;100.00;99418.41;4974621;28;19927;-79
2022/07/29 08:10:02;;;;;;;;;;;;;;;20.67;100.00;99413.00;4974984;28;19926;-81
2022/07/29 08:12:29;;;;;;;;;;;;;;;20.80;100.00;99410.69;4957381;28;20608;-81
2022/07/29 08:14:56;;;;;;;;;;;;;;;20.86;100.00;99414.41;4971905;28;19949;-81
2022/07/29 08:17:23;;;;;;;;;;;;;;;20.93;100.00;99414.84;4972582;28;19926;-81
2022/07/29 08:19:50;;;;;;;;;;;;;;;21.00;100.00;99416.56;4955625;28;19971;-81
2022/07/29 08:22:17;;;;;;;;;;;;;;;21.02;100.00;99405.50;4972672;28;19940;-81
2022/07/29 08:24:52;;;;;;;;;;;;;;;21.07;100.00;99413.31;4971600;28;19933;-81
2022/07/29 08:27:20;;;;;;;;;;;;;;;20.99;100.00;99412.16;4973238;28;19945;-81
2022/07/29 08:30:07;;;;;;;;;;;;;;;21.00;100.00;99414.50;4956584;28;20328;-81
2022/07/29 08:32:34;;;;;;;;;;;;;;;20.98;100.00;99410.56;4973608;28;19933;-81
2022/07/29 08:35:22;;;;;;;;;;;;;;;21.12;100.00;99404.13;4958896;28;19926;-81
2022/07/29 08:37:49;;;;;;;;;;;;;;;21.16;100.00;99407.56;4971651;28;19926;-81
2022/07/29 08:40:16;;;;;;;;;;;;;;;21.08;100.00;99403.56;4973779;28;19930;-81
2022/07/29 08:42:43;;;;;;;;;;;;;;;21.42;100.00;99400.06;4972339;28;19930;-81
2022/07/29 08:45:11;;;;;;;;;;;;;;;21.28;100.00;99407.31;4972260;28;19926;-81
2022/07/29 08:47:39;;;;;;;;;;;;;;;21.20;100.00;99416.72;4972057;28;20278;-81
2022/07/29 08:50:07;;;;;;;;;;;;;;;21.15;100.00;99408.84;4973401;28;19926;-81
2022/07/29 08:52:38;;;;;;;;;;;;;;;21.54;100.00;99403.91;4973299;28;19926;-81
2022/07/29 08:55:06;;;;;;;;;;;;;;;21.69;100.00;99404.69;4972188;28;20308;-81
2022/07/29 08:57:34;;;;;;;;;;;;;;;21.93;100.00;99406.16;4972042;28;20300;-81
2022/07/29 09:00:03;;;;;;;;;;;;;;;21.73;100.00;99402.41;4972068;28;20297;-81
2022/07/29 09:02:36;;;;;;;;;;;;;;;21.49;100.00;99405.38;4972952;28;20339;-81
2022/07/29 09:05:04;;;;;;;;;;;;;;;21.96;100.00;99410.09;4971787;28;19933;-81
2022/07/29 09:07:32;;;;;;;;;;;;;;;22.23;100.00;99407.69;4973121;28;19926;-81
2022/07/29 09:10:00;;;;;;;;;;;;;;;22.40;100.00;99414.38;4971941;28;20013;-81
2022/07/29 09:12:28;;;;;;;;;;;;;;;22.85;100.00;99413.78;4973035;28;19927;-81
2022/07/29 09:14:56;;;;;;;;;;;;;;;23.20;100.00;99401.47;4971736;28;20034;-81
2022/07/29 09:17:52;;;;;;;;;;;;;;;22.96;100.00;99408.19;4972841;28;19926;-81
2022/07/29 09:20:24;;;;;;;;;;;;;;;23.37;100.00;99402.47;4984847;28;20369;-81
2022/07/29 09:22:55;;;;;;;;;;;;;;;23.11;100.00;99403.19;4955850;28;19966;-81
2022/07/29 09:25:35;;;;;;;;;;;;;;;21.60;100.00;99402.72;4972931;28;19926;-81
2022/07/29 09:28:07;;;;;;;;;;;;;;;22.06;100.00;99408.69;4972731;28;19938;-82
2022/07/29 09:30:34;;;;;;;;;;;;;;;22.51;100.00;99406.03;4972883;28;19973;-82
2022/07/29 09:33:02;;;;;;;;;;;;;;;22.91;100.00;99406.06;4971203;28;20326;-82
2022/07/29 09:35:30;;;;;;;;;;;;;;;22.91;100.00;99388.97;4972561;28;19926;-82
2022/07/29 09:37:57;;;;;;;;;;;;;;;23.34;100.00;99397.78;4972657;28;19926;-80
2022/07/29 09:40:26;;;;;;;;;;;;;;;23.73;100.00;99391.19;4972812;28;19930;-80
2022/07/29 09:42:56;;;;;;;;;;;;;;;22.46;100.00;99406.72;4971435;28;19949;-80
2022/07/29 09:45:31;;;;;;;;;;;;;;;22.54;100.00;99398.56;4955335;28;19926;-79
2022/07/29 09:48:02;;;;;;;;;;;;;;;23.44;100.00;99397.13;4971440;28;20044;-79
2022/07/29 09:50:36;;;;;;;;;;;;;;;23.40;100.00;99401.47;4972412;28;19930;-79
2022/07/29 09:53:04;;;;;;;;;;;;;;;23.57;100.00;99393.88;4971228;28;19926;-79
2022/07/29 09:55:32;;;;;;;;;;;;;;;23.93;100.00;99393.16;4972375;28;20035;-79
2022/07/29 09:58:25;;;;;;;;;;;;;;;22.26;100.00;99398.16;4972355;28;20373;-80
2022/07/29 10:00:52;;;;;;;;;;;;;;;21.85;100.00;99405.00;4972953;28;19932;-79
2022/07/29 10:03:20;;;;;;;;;;;;;;;21.98;100.00;99405.47;4971010;28;19926;-80
2022/07/29 10:06:08;;;;;;;;;;;;;;;22.29;100.00;99402.88;4954863;28;19984;-79
2022/07/29 10:08:35;;;;;;;;;;;;;;;22.15;100.00;99405.72;4971346;28;20336;-79
2022/07/29 10:11:28;;;;;;;;;;;;;;;22.53;100.00;99399.84;4971034;28;19926;-80
2022/07/29 10:13:55;;;;;;;;;;;;;;;23.19;100.00;99402.78;4974385;28;19926;-80
2022/07/29 10:16:23;;;;;;;;;;;;;;;23.39;100.00;99400.69;4971922;28;19965;-80
2022/07/29 10:18:50;;;;;;;;;;;;;;;22.53;100.00;99400.66;4970833;28;19926;-80
2022/07/29 10:21:18;;;;;;;;;;;;;;;21.52;100.00;99410.09;4970946;28;20413;-80
2022/07/29 10:23:45;;;;;;;;;;;;;;;21.46;100.00;99403.50;4970699;28;19933;-80
2022/07/29 10:26:14;;;;;;;;;;;;;;;21.45;100.00;99401.94;4970759;28;20464;-79
2022/07/29 10:28:41;;;;;;;;;;;;;;;20.74;100.00;99410.56;4954707;28;19930;-79
2022/07/29 10:31:12;;;;;;;;;;;;;;;21.93;100.00;99403.31;4971674;28;20386;-79
2022/07/29 10:34:17;;;;;;;;;;;;;;;21.44;100.00;99406.06;4971730;28;19971;-79
2022/07/29 10:37:03;;;;;;;;;;;;;;;22.47;100.00;99405.44;5014635;28;20023;-79
2022/07/29 10:39:37;;;;;;;;;;;;;;;22.51;100.00;99400.34;5031068;28;20027;-80
2022/07/29 10:42:04;;;;;;;;;;;;;;;22.05;100.00;99407.94;5014637;28;20066;-80
2022/07/29 10:44:33;;;;;;;;;;;;;;;22.11;100.00;99411.63;5014243;28;19925;-80
2022/07/29 10:47:00;;;;;;;;;;;;;;;21.69;100.00;99402.63;5030842;28;19967;-79
2022/07/29 10:49:29;;;;;;;;;;;;;;;22.05;100.00;99407.94;5030825;28;19925;-79
2022/07/29 10:51:59;;;;;;;;;;;;;;;21.51;100.00;99402.81;5030802;28;19926;-79
2022/07/29 10:54:34;;;;;;;;;;;;;;;20.90;100.00;99412.97;4997868;28;19940;-79
2022/07/29 10:57:10;;;;;;;;;;;;;;;21.09;100.00;99417.28;5030749;28;19925;-79
2022/07/29 10:59:37;;;;;;;;;;;;;;;22.04;100.00;99416.97;5014119;28;19925;-80
2022/07/29 11:02:23;;;;;;;;;;;;;;;21.06;100.00;99406.09;5030095;28;20466;-80
2022/07/29 11:05:03;;;;;;;;;;;;;;;20.59;100.00;99423.94;4997570;28;20036;-79
2022/07/29 11:07:30;;;;;;;;;;;;;;;21.08;100.00;99417.75;4991562;28;19930;-79
2022/07/29 11:10:12;;;;;;;;;;;;;;;21.99;100.00;99417.63;4954626;28;19927;-79
2022/07/29 11:12:42;;;;;;;;;;;;;;;21.42;100.00;99417.13;4971127;28;20324;-79
2022/07/29 11:15:18;;;;;;;;;;;;;;;22.05;100.00;99421.34;4970166;28;19930;-79
2022/07/29 11:17:56;;;;;;;;;;;;;;;22.84;100.00;99423.59;4971325;28;19999;-79
2022/07/29 11:20:33;;;;;;;;;;;;;;;23.17;100.00;99429.69;4970165;28;20312;-80
2022/07/29 11:23:02;;;;;;;;;;;;;;;23.24;100.00;99416.28;4970154;28;19926;-80
2022/07/29 11:25:29;;;;;;;;;;;;;;;23.58;100.00;99419.03;4971154;28;19929;-81
2022/07/29 11:28:09;;;;;;;;;;;;;;;23.53;100.00;99421.81;4971052;28;19926;-82
2022/07/29 11:30:53;;;;;;;;;;;;;;;23.74;100.00;99414.75;4970015;28;19926;-82
2022/07/29 11:33:33;;;;;;;;;;;;;;;22.99;100.00;99423.53;4969958;28;19975;-80
2022/07/29 11:36:13;;;;;;;;;;;;;;;23.61;100.00;99417.25;4969916;28;19957;-80
2022/07/29 11:38:41;;;;;;;;;;;;;;;23.82;100.00;99415.88;4969954;28;19926;-80
2022/07/29 11:41:26;;;;;;;;;;;;;;;24.05;100.00;99409.88;4971081;28;19926;-80
2022/07/29 11:43:57;;;;;;;;;;;;;;;24.31;100.00;99401.25;4953864;28;20009;-80
2022/07/29 11:46:46;;;;;;;;;;;;;;;24.50;100.00;99410.97;4953987;28;19926;-80
2022/07/29 11:49:18;;;;;;;;;;;;;;;24.18;100.00;99398.03;4969861;28;20022;-80
2022/07/29 11:51:50;;;;;;;;;;;;;;;24.55;100.00;99393.84;4971055;28;19930;-79
2022/07/29 11:54:21;;;;;;;;;;;;;;;24.77;100.00;99396.09;4969669;28;19943;-80
2022/07/29 11:56:50;;;;;;;;;;;;;;;24.68;100.00;99402.81;4969474;28;20300;-80
2022/07/29 11:59:17;;;;;;;;;;;;;;;25.08;100.00;99383.75;4953575;28;19926;-80
2022/07/29 12:01:54;;;;;;;;;;;;;;;25.41;100.00;99383.84;4970624;28;19933;-80
2022/07/29 12:04:32;;;;;;;;;;;;;;;25.54;100.00;99395.56;4953422;28;20364;-80
2022/07/29 12:07:00;;;;;;;;;;;;;;;25.63;100.00;99387.53;4969663;28;20417;-80
2022/07/29 12:09:29;;;;;;;;;;;;;;;25.81;100.00;99384.16;4970767;28;19937;-80
2022/07/29 12:11:58;;;;;;;;;;;;;;;25.79;100.00;99383.91;4970469;28;19926;-80
2022/07/29 12:14:29;;;;;;;;;;;;;;;25.76;100.00;99381.31;4972652;28;20028;-80
2022/07/29 12:16:57;;;;;;;;;;;;;;;25.77;100.00;99380.78;4973745;28;19926;-82
2022/07/29 12:19:25;;;;;;;;;;;;;;;25.80;100.00;99374.03;4975077;28;19965;-80
2022/07/29 12:21:54;;;;;;;;;;;;;;;25.46;100.00;99366.69;4974815;28;19926;-80
2022/07/29 12:24:22;;;;;;;;;;;;;;;25.71;100.00;99374.28;4968061;28;19926;-80
2022/07/29 12:26:53;;;;;;;;;;;;;;;25.37;100.00;99372.66;4962405;28;20290;-78
2022/07/29 12:29:21;;;;;;;;;;;;;;;25.33;100.00;99377.88;4970909;28;19926;-78
2022/07/29 12:31:53;;;;;;;;;;;;;;;25.45;100.00;99373.72;4968965;28;19949;-78
2022/07/29 12:34:22;;;;;;;;;;;;;;;25.37;100.00;99366.19;4954999;29;19993;-77
2022/07/29 12:36:52;;;;;;;;;;;;;;;25.23;100.00;99370.81;4962696;28;19926;-77
2022/07/29 12:39:19;;;;;;;;;;;;;;;25.34;100.00;99367.97;4973122;28;19930;-77
2022/07/29 12:41:46;;;;;;;;;;;;;;;25.17;100.00;99364.28;4963490;28;19933;-78
2022/07/29 12:44:14;;;;;;;;;;;;;;;24.97;100.00;99364.47;4966340;28;20016;-78
2022/07/29 12:46:41;;;;;;;;;;;;;;;25.05;100.00;99368.41;4974217;28;19933;-78
2022/07/29 12:49:08;;;;;;;;;;;;;;;25.13;100.00;99363.75;4974780;28;19972;-78
2022/07/29 12:51:39;;;;;;;;;;;;;;;25.10;100.00;99370.50;4971908;28;19957;-78
2022/07/29 12:54:17;;;;;;;;;;;;;;;25.11;100.00;99368.41;4969410;28;19962;-78